Time;durP1;ratioP1;P1;durP2;ratioP2;P2;SDS_P1;SDS_P2;PMS_P1;PMS_P2;Temp;Humidity;BMP_temperature;BMP_pressure;BME280_temperature;BME280_humidity;BME280_pressure;Samples;Min_cycle;Max_cycle;Signal;HPM_P1;HPM_P2
2023/08/07 00:00:34;;;;;;;0.20;0.20;;;14.70;99.90;;;;;;4814774;29;20053;-84
2023/08/07 00:03:00;;;;;;;0.20;0.20;;;15.70;99.90;;;;;;4795932;29;20046;-84
2023/08/07 00:05:25;;;;;;;0.20;0.20;;;14.70;99.90;;;;;;4814080;29;20042;-83
2023/08/07 00:07:51;;;;;;;0.20;0.20;;;15.50;99.90;;;;;;4813465;29;20111;-83
2023/08/07 00:10:17;;;;;;;0.10;0.10;;;14.80;99.90;;;;;;4812856;29;20054;-83
2023/08/07 00:12:43;;;;;;;0.20;0.20;;;15.60;99.90;;;;;;4813720;29;20042;-84
2023/08/07 00:15:10;;;;;;;0.10;0.10;;;14.70;99.90;;;;;;4809956;29;20086;-84
2023/08/07 00:17:35;;;;;;;0.20;0.20;;;14.80;99.90;;;;;;4809697;29;20039;-83
2023/08/07 00:20:02;;;;;;;0.20;0.20;;;15.60;99.90;;;;;;4810770;29;20046;-84
2023/08/07 00:22:28;;;;;;;0.20;0.20;;;14.90;99.90;;;;;;4813691;29;20050;-84
2023/08/07 00:24:53;;;;;;;0.20;0.20;;;15.40;99.90;;;;;;4814013;29;20035;-85
2023/08/07 00:27:19;;;;;;;0.20;0.20;;;15.00;99.90;;;;;;4815413;29;20042;-84
2023/08/07 00:29:45;;;;;;;0.20;0.20;;;14.70;99.90;;;;;;4811833;29;20065;-84
2023/08/07 00:32:10;;;;;;;0.20;0.20;;;15.50;99.90;;;;;;4810347;29;20130;-84
2023/08/07 00:34:36;;;;;;;0.20;0.20;;;15.50;99.90;;;;;;4812723;29;20431;-84
2023/08/07 00:37:02;;;;;;;0.20;0.20;;;15.80;99.90;;;;;;4812383;29;20407;-85
2023/08/07 00:39:27;;;;;;;0.20;0.20;;;15.20;99.90;;;;;;4810336;29;20114;-84
2023/08/07 00:41:54;;;;;;;0.20;0.20;;;14.60;99.90;;;;;;4811771;29;20046;-86
2023/08/07 00:44:19;;;;;;;0.13;0.13;;;15.50;99.90;;;;;;4814853;29;20182;-85
2023/08/07 00:46:45;;;;;;;0.15;0.15;;;15.20;99.90;;;;;;4801815;29;20609;-84
2023/08/07 00:49:12;;;;;;;0.20;0.20;;;15.40;99.90;;;;;;4799609;29;20038;-84
2023/08/07 00:51:39;;;;;;;0.20;0.20;;;15.50;99.90;;;;;;4818957;29;20047;-84
2023/08/07 00:54:07;;;;;;;0.10;0.10;;;15.40;99.90;;;;;;4809235;29;20047;-85
2023/08/07 00:56:33;;;;;;;0.20;0.20;;;15.30;99.90;;;;;;4812328;29;20439;-83
2023/08/07 00:59:00;;;;;;;0.10;0.10;;;14.40;99.90;;;;;;4809617;29;20411;-84
2023/08/07 01:01:26;;;;;;;0.10;0.10;;;14.90;99.90;;;;;;4813788;29;20559;-84
2023/08/07 01:03:52;;;;;;;0.15;0.15;;;14.50;99.90;;;;;;4810779;29;20704;-84
2023/08/07 01:06:18;;;;;;;0.20;0.20;;;14.50;99.90;;;;;;4796309;29;20058;-84
2023/08/07 01:08:44;;;;;;;0.20;0.20;;;14.40;99.90;;;;;;4814078;29;20037;-84
2023/08/07 01:11:28;;;;;;;0.20;0.20;;;15.30;99.90;;;;;;4810831;29;20054;-85
2023/08/07 01:13:59;;;;;;;0.20;0.20;;;15.30;99.90;;;;;;4798032;29;20054;-84
2023/08/07 01:16:35;;;;;;;0.20;0.20;;;15.30;99.90;;;;;;4811412;29;20493;-84
2023/08/07 01:19:03;;;;;;;0.10;0.10;;;15.20;99.90;;;;;;4797123;29;20062;-84
2023/08/07 01:21:28;;;;;;;0.10;0.10;;;15.20;99.90;;;;;;4813749;29;20069;-83
2023/08/07 01:23:54;;;;;;;0.17;0.17;;;15.10;99.90;;;;;;4811151;29;20047;-83
2023/08/07 01:26:21;;;;;;;0.17;0.17;;;15.10;99.90;;;;;;4814000;29;20102;-83
2023/08/07 01:29:06;;;;;;;0.17;0.17;;;15.20;99.90;;;;;;4814041;29;20046;-83
2023/08/07 01:31:36;;;;;;;0.10;0.10;;;14.30;99.90;;;;;;4827634;29;20411;-83
2023/08/07 01:34:05;;;;;;;0.20;0.20;;;15.10;99.90;;;;;;4808223;29;20050;-84
2023/08/07 01:36:31;;;;;;;0.15;0.15;;;14.80;99.90;;;;;;4811811;29;20051;-83
2023/08/07 01:38:58;;;;;;;0.20;0.20;;;14.10;99.90;;;;;;4813639;29;20107;-82
2023/08/07 01:41:25;;;;;;;0.10;0.10;;;14.90;99.90;;;;;;4816100;29;20038;-82
2023/08/07 01:43:51;;;;;;;0.10;0.10;;;15.10;99.90;;;;;;4798778;29;20066;-83
2023/08/07 01:46:18;;;;;;;0.20;0.20;;;14.30;99.90;;;;;;4818475;29;20069;-82
2023/08/07 01:48:44;;;;;;;0.10;0.10;;;14.10;99.90;;;;;;4818423;29;20058;-83
2023/08/07 01:51:09;;;;;;;0.20;0.20;;;14.10;99.90;;;;;;4815938;29;20411;-83
2023/08/07 01:53:35;;;;;;;0.20;0.20;;;14.00;99.90;;;;;;4810992;29;20046;-82
2023/08/07 01:56:01;;;;;;;0.10;0.10;;;14.10;99.90;;;;;;4800938;29;20994;-84
2023/08/07 01:58:26;;;;;;;0.20;0.20;;;14.50;99.90;;;;;;4813059;29;20054;-85
2023/08/07 02:00:53;;;;;;;0.10;0.10;;;14.00;99.90;;;;;;4818775;29;20449;-83
2023/08/07 02:03:20;;;;;;;0.10;0.10;;;14.00;99.90;;;;;;4815478;29;20129;-85
2023/08/07 02:05:49;;;;;;;0.20;0.20;;;14.80;99.90;;;;;;4817365;29;20078;-84
2023/08/07 02:08:15;;;;;;;0.20;0.20;;;14.90;99.90;;;;;;4819976;29;20054;-84
2023/08/07 02:10:43;;;;;;;0.10;0.10;;;15.00;99.90;;;;;;4802252;29;20046;-84
2023/08/07 02:13:09;;;;;;;0.10;0.10;;;14.20;99.90;;;;;;4805596;29;20594;-83
2023/08/07 02:15:35;;;;;;;0.20;0.20;;;13.90;99.90;;;;;;4814084;29;20053;-81
2023/08/07 02:18:00;;;;;;;0.20;0.20;;;14.50;99.90;;;;;;4814352;29;20049;-83
2023/08/07 02:20:26;;;;;;;0.10;0.10;;;14.70;99.90;;;;;;4814213;29;20496;-84
2023/08/07 02:22:52;;;;;;;0.10;0.10;;;14.90;99.90;;;;;;4813204;29;20119;-84
2023/08/07 02:25:18;;;;;;;0.20;0.20;;;14.30;99.90;;;;;;4814428;29;20039;-83
2023/08/07 02:27:43;;;;;;;0.10;0.10;;;14.90;99.90;;;;;;4813442;29;20055;-83
2023/08/07 02:30:09;;;;;;;0.20;0.20;;;14.90;99.90;;;;;;4812005;29;20160;-84
2023/08/07 02:32:41;;;;;;;0.10;0.10;;;14.00;99.90;;;;;;4799607;29;20054;-84
2023/08/07 02:35:07;;;;;;;0.20;0.20;;;14.90;99.90;;;;;;4814687;29;20057;-83
2023/08/07 02:37:32;;;;;;;0.10;0.10;;;14.40;99.90;;;;;;4816013;29;20055;-84
2023/08/07 02:39:58;;;;;;;0.20;0.20;;;14.40;99.90;;;;;;4815006;29;20111;-84
2023/08/07 02:42:24;;;;;;;0.10;0.10;;;13.90;99.90;;;;;;4814130;29;20055;-84
2023/08/07 02:44:52;;;;;;;0.10;0.10;;;15.00;99.90;;;;;;4814853;29;20055;-84
2023/08/07 02:47:18;;;;;;;0.20;0.20;;;13.90;99.90;;;;;;4815247;29;20055;-83
2023/08/07 02:49:43;;;;;;;0.15;0.15;;;14.30;99.90;;;;;;4813561;29;20046;-85
2023/08/07 02:52:09;;;;;;;0.10;0.10;;;13.90;99.90;;;;;;4814426;29;20057;-84
2023/08/07 02:54:35;;;;;;;0.10;0.10;;;13.90;99.90;;;;;;4814481;29;20091;-83
2023/08/07 02:57:00;;;;;;;0.10;0.10;;;14.10;99.90;;;;;;4814522;29;20074;-84
2023/08/07 02:59:26;;;;;;;0.13;0.13;;;13.90;99.90;;;;;;4814800;29;20062;-82
2023/08/07 03:01:51;;;;;;;0.20;0.20;;;14.80;99.90;;;;;;4812601;29;20054;-84
2023/08/07 03:04:19;;;;;;;0.10;0.10;;;14.60;99.90;;;;;;4812909;29;20054;-84
2023/08/07 03:06:45;;;;;;;0.20;0.20;;;14.30;99.90;;;;;;4812604;29;20061;-84
2023/08/07 03:09:13;;;;;;;0.10;0.10;;;13.90;99.90;;;;;;4812758;29;20046;-85
2023/08/07 03:11:42;;;;;;;0.10;0.10;;;15.10;99.90;;;;;;4815774;29;20038;-85
2023/08/07 03:14:08;;;;;;;0.20;0.20;;;15.00;99.90;;;;;;4814055;29;20038;-84
2023/08/07 03:16:33;;;;;;;0.17;0.17;;;14.70;99.90;;;;;;4817732;29;20061;-84
2023/08/07 03:18:59;;;;;;;0.20;0.20;;;13.90;99.90;;;;;;4815332;29;20138;-84
2023/08/07 03:21:25;;;;;;;0.17;0.17;;;14.60;99.90;;;;;;4817590;29;20057;-83
2023/08/07 03:23:51;;;;;;;0.20;0.20;;;15.00;99.90;;;;;;4813605;29;20046;-84
2023/08/07 03:26:16;;;;;;;0.20;0.20;;;15.00;99.90;;;;;;4818965;29;20051;-84
2023/08/07 03:28:42;;;;;;;0.20;0.20;;;14.90;99.90;;;;;;4814693;29;20602;-84
2023/08/07 03:31:08;;;;;;;0.13;0.13;;;14.80;99.90;;;;;;4813547;29;20547;-83
2023/08/07 03:33:33;;;;;;;0.20;0.20;;;14.50;99.90;;;;;;4817562;29;20059;-84
2023/08/07 03:36:02;;;;;;;0.20;0.20;;;14.30;99.90;;;;;;4815172;29;20093;-84
2023/08/07 03:38:28;;;;;;;0.20;0.20;;;14.20;99.90;;;;;;4813974;29;20042;-84
2023/08/07 03:40:54;;;;;;;0.20;0.20;;;14.10;99.90;;;;;;4808963;29;20404;-83
2023/08/07 03:43:19;;;;;;;0.15;0.15;;;14.80;99.90;;;;;;4815672;29;20055;-84
2023/08/07 03:45:45;;;;;;;0.20;0.20;;;14.70;99.90;;;;;;4812458;29;20054;-84
2023/08/07 03:48:11;;;;;;;0.20;0.20;;;14.00;99.90;;;;;;4814590;29;20143;-85
2023/08/07 03:50:39;;;;;;;0.20;0.20;;;14.20;99.90;;;;;;4817394;29;20499;-85
2023/08/07 03:53:07;;;;;;;0.20;0.20;;;14.00;99.90;;;;;;4814039;29;20103;-84
2023/08/07 03:55:32;;;;;;;0.20;0.20;;;15.10;99.90;;;;;;4797050;29;20058;-85
2023/08/07 03:57:58;;;;;;;0.20;0.20;;;14.20;99.90;;;;;;4818923;29;20042;-84
2023/08/07 04:00:24;;;;;;;0.20;0.20;;;14.40;99.90;;;;;;4799094;29;20087;-87
2023/08/07 04:02:50;;;;;;;0.20;0.20;;;14.20;99.90;;;;;;4812486;29;20054;-86
2023/08/07 04:05:15;;;;;;;0.10;0.10;;;14.90;99.90;;;;;;4815281;29;20046;-85
2023/08/07 04:07:41;;;;;;;0.20;0.20;;;15.00;99.90;;;;;;4814835;29;20073;-86
2023/08/07 04:10:07;;;;;;;0.20;0.20;;;15.10;99.90;;;;;;4800193;29;20046;-86
2023/08/07 04:12:32;;;;;;;0.20;0.20;;;15.00;99.90;;;;;;4815044;29;20523;-85
2023/08/07 04:14:58;;;;;;;0.20;0.20;;;15.00;99.90;;;;;;4812084;29;20042;-84
2023/08/07 04:17:24;;;;;;;0.10;0.10;;;14.30;99.90;;;;;;4814536;29;20492;-86
2023/08/07 04:19:50;;;;;;;0.20;0.20;;;14.30;99.90;;;;;;4817105;29;20079;-85
2023/08/07 04:22:15;;;;;;;0.20;0.20;;;13.90;99.90;;;;;;4811607;29;20070;-85
2023/08/07 04:24:41;;;;;;;0.20;0.20;;;14.00;99.90;;;;;;4811700;29;20040;-87
2023/08/07 04:27:08;;;;;;;0.10;0.10;;;14.50;99.90;;;;;;4814628;29;20055;-85
2023/08/07 04:29:33;;;;;;;0.20;0.20;;;13.90;99.90;;;;;;4814997;29;20073;-84
2023/08/07 04:31:59;;;;;;;0.20;0.20;;;13.90;99.90;;;;;;4815764;29;20586;-85
2023/08/07 04:34:25;;;;;;;0.20;0.20;;;14.80;99.90;;;;;;4818042;29;20053;-84
2023/08/07 04:36:53;;;;;;;0.20;0.20;;;14.00;99.90;;;;;;4814138;29;20890;-84
2023/08/07 04:39:20;;;;;;;0.20;0.20;;;14.10;99.90;;;;;;4812860;29;20065;-85
2023/08/07 04:41:47;;;;;;;0.20;0.20;;;14.90;99.90;;;;;;4815401;29;20058;-84
2023/08/07 04:44:13;;;;;;;0.10;0.10;;;14.90;99.90;;;;;;4810604;29;20042;-85
2023/08/07 04:46:38;;;;;;;0.10;0.10;;;13.90;99.90;;;;;;4814425;29;20042;-85
2023/08/07 04:49:05;;;;;;;0.10;0.10;;;14.80;99.90;;;;;;4808858;29;20063;-85
2023/08/07 04:51:31;;;;;;;0.20;0.20;;;14.30;99.90;;;;;;4812810;29;20464;-86
2023/08/07 04:53:57;;;;;;;0.20;0.20;;;14.00;99.90;;;;;;4810128;29;20084;-86
2023/08/07 04:56:23;;;;;;;0.10;0.10;;;13.90;99.90;;;;;;4812648;29;20107;-85
2023/08/07 04:58:48;;;;;;;0.10;0.10;;;14.60;99.90;;;;;;4809206;29;20552;-85
2023/08/07 05:01:14;;;;;;;0.10;0.10;;;14.90;99.90;;;;;;4813987;29;20544;-86
2023/08/07 05:03:40;;;;;;;0.10;0.10;;;14.00;99.90;;;;;;4815392;29;20106;-82
2023/08/07 05:06:05;;;;;;;0.10;0.10;;;14.80;99.90;;;;;;4824115;29;20136;-85
2023/08/07 05:08:31;;;;;;;0.15;0.15;;;13.90;99.90;;;;;;4815403;29;20047;-85
2023/08/07 05:10:57;;;;;;;0.10;0.10;;;14.80;99.90;;;;;;4818540;29;20057;-87
2023/08/07 05:13:22;;;;;;;0.20;0.20;;;14.90;99.90;;;;;;4805105;29;20050;-86
2023/08/07 05:15:48;;;;;;;0.20;0.20;;;14.40;99.90;;;;;;4820430;29;20115;-86
2023/08/07 05:18:15;;;;;;;0.10;0.10;;;14.30;99.90;;;;;;4813028;29;20058;-84
2023/08/07 05:20:40;;;;;;;0.10;0.10;;;14.00;99.90;;;;;;4814536;29;20046;-86
2023/08/07 05:23:06;;;;;;;0.10;0.10;;;14.10;99.90;;;;;;4817311;29;20063;-85
2023/08/07 05:25:32;;;;;;;0.10;0.10;;;14.50;99.90;;;;;;4817148;29;20174;-84
2023/08/07 05:27:58;;;;;;;0.13;0.13;;;15.00;99.90;;;;;;4816787;29;20054;-85
2023/08/07 05:30:23;;;;;;;0.20;0.20;;;15.10;99.90;;;;;;4813218;29;20148;-85
2023/08/07 05:32:49;;;;;;;0.20;0.20;;;15.10;99.90;;;;;;4813257;29;20050;-85
2023/08/07 05:35:15;;;;;;;0.15;0.15;;;14.20;99.90;;;;;;4815409;29;20043;-85
2023/08/07 05:37:40;;;;;;;0.10;0.10;;;14.40;99.90;;;;;;4816331;29;20050;-87
2023/08/07 05:40:07;;;;;;;0.10;0.10;;;15.00;99.90;;;;;;4814502;29;20058;-84
2023/08/07 05:42:33;;;;;;;0.10;0.10;;;15.00;99.90;;;;;;4817789;29;20074;-86
2023/08/07 05:44:59;;;;;;;0.20;0.20;;;14.10;99.90;;;;;;4800608;29;20046;-87
2023/08/07 05:47:25;;;;;;;0.20;0.20;;;14.70;99.90;;;;;;4818567;29;20549;-84
2023/08/07 05:49:50;;;;;;;0.20;0.20;;;15.00;99.90;;;;;;4814909;29;20050;-85
2023/08/07 05:52:17;;;;;;;0.10;0.10;;;14.40;99.90;;;;;;4813956;29;20080;-84
2023/08/07 05:54:43;;;;;;;0.17;0.17;;;14.50;99.90;;;;;;4805150;29;20445;-87
2023/08/07 05:57:09;;;;;;;0.20;0.20;;;14.80;99.90;;;;;;4816352;29;20054;-87
2023/08/07 05:59:35;;;;;;;0.20;0.20;;;14.50;99.90;;;;;;4813927;29;20042;-85
2023/08/07 06:02:02;;;;;;;0.20;0.20;;;14.30;99.90;;;;;;4800799;29;20050;-84
2023/08/07 06:04:27;;;;;;;0.20;0.20;;;14.40;99.90;;;;;;4819783;29;20490;-83
2023/08/07 06:06:53;;;;;;;0.20;0.20;;;15.10;99.90;;;;;;4816893;29;20050;-86
2023/08/07 06:09:21;;;;;;;0.10;0.10;;;15.00;99.90;;;;;;4820768;29;20127;-85
2023/08/07 06:11:47;;;;;;;0.20;0.20;;;14.20;99.90;;;;;;4819918;29;20089;-85
2023/08/07 06:14:13;;;;;;;0.20;0.20;;;15.00;99.90;;;;;;4818730;29;20099;-83
2023/08/07 06:16:39;;;;;;;0.20;0.20;;;14.30;99.90;;;;;;4817110;29;20054;-84
2023/08/07 06:19:04;;;;;;;0.20;0.20;;;15.10;99.90;;;;;;4813425;29;20133;-84
2023/08/07 06:21:30;;;;;;;0.10;0.10;;;14.50;99.90;;;;;;4831902;29;20517;-86
2023/08/07 06:23:56;;;;;;;0.20;0.20;;;14.70;99.90;;;;;;4818398;29;20066;-86
2023/08/07 06:26:22;;;;;;;0.10;0.10;;;15.00;99.90;;;;;;4814068;29;20137;-85
2023/08/07 06:28:48;;;;;;;0.20;0.20;;;14.70;99.90;;;;;;4819537;29;20153;-86
2023/08/07 06:31:16;;;;;;;0.10;0.10;;;14.50;99.90;;;;;;4811526;29;20058;-85
2023/08/07 06:33:42;;;;;;;0.10;0.10;;;14.90;99.90;;;;;;4819215;29;20057;-85
2023/08/07 06:36:11;;;;;;;0.20;0.20;;;15.40;99.90;;;;;;4817366;29;20311;-85
2023/08/07 06:38:37;;;;;;;0.20;0.20;;;15.30;99.90;;;;;;4802737;29;20514;-86
2023/08/07 06:41:03;;;;;;;0.10;0.10;;;15.30;99.90;;;;;;4805518;29;20046;-86
2023/08/07 06:43:28;;;;;;;0.20;0.20;;;15.10;99.90;;;;;;4814897;29;20065;-85
2023/08/07 06:45:55;;;;;;;0.20;0.20;;;15.20;99.90;;;;;;4815103;29;20510;-84
2023/08/07 06:48:21;;;;;;;0.15;0.15;;;15.30;99.90;;;;;;4816076;29;20503;-86
2023/08/07 06:50:47;;;;;;;0.20;0.20;;;14.90;99.90;;;;;;4818816;29;20038;-87
2023/08/07 06:53:13;;;;;;;0.20;0.20;;;15.30;99.90;;;;;;4823220;29;20053;-86
2023/08/07 06:55:40;;;;;;;0.20;0.20;;;15.30;99.90;;;;;;4823003;29;20042;-86
2023/08/07 06:58:06;;;;;;;0.10;0.10;;;15.10;99.90;;;;;;4823409;29;20039;-84
2023/08/07 07:00:33;;;;;;;0.17;0.17;;;15.10;99.90;;;;;;4818967;29;20042;-86
2023/08/07 07:02:59;;;;;;;0.20;0.20;;;15.10;99.90;;;;;;4819904;29;20506;-87
2023/08/07 07:05:25;;;;;;;0.10;0.10;;;14.90;99.90;;;;;;4822598;29;20039;-86
2023/08/07 07:07:50;;;;;;;0.10;0.10;;;15.30;99.90;;;;;;4822273;29;20050;-84
2023/08/07 07:10:16;;;;;;;0.10;0.10;;;14.80;99.90;;;;;;4816875;29;20057;-86
2023/08/07 07:12:42;;;;;;;0.20;0.20;;;14.60;99.90;;;;;;4819386;29;20078;-87
2023/08/07 07:15:08;;;;;;;0.17;0.17;;;15.20;99.90;;;;;;4821284;29;20049;-87
2023/08/07 07:17:34;;;;;;;0.20;0.20;;;15.40;99.90;;;;;;4817771;29;20089;-87
2023/08/07 07:20:00;;;;;;;0.20;0.20;;;15.10;99.90;;;;;;4815241;29;20078;-85
2023/08/07 07:22:26;;;;;;;0.10;0.10;;;15.10;99.90;;;;;;4828901;29;20076;-84
2023/08/07 07:24:51;;;;;;;0.20;0.20;;;15.20;99.90;;;;;;4827421;29;20065;-86
2023/08/07 07:27:17;;;;;;;0.10;0.10;;;15.30;99.90;;;;;;4825610;29;20042;-84
2023/08/07 07:29:43;;;;;;;0.10;0.10;;;14.80;99.90;;;;;;4826259;29;20423;-84
2023/08/07 07:32:08;;;;;;;0.10;0.10;;;15.20;99.90;;;;;;4818665;29;20137;-84
2023/08/07 07:34:34;;;;;;;0.10;0.10;;;15.20;99.90;;;;;;4823302;29;20045;-83
2023/08/07 07:37:00;;;;;;;0.20;0.20;;;15.00;99.90;;;;;;4811849;29;20055;-81
2023/08/07 07:39:25;;;;;;;0.10;0.10;;;15.30;99.90;;;;;;4812678;29;20451;-81
2023/08/07 07:41:51;;;;;;;0.10;0.10;;;15.20;99.90;;;;;;4822440;29;20403;-83
2023/08/07 07:44:17;;;;;;;0.10;0.10;;;15.10;99.90;;;;;;4813632;29;20050;-82
2023/08/07 07:46:42;;;;;;;0.20;0.20;;;15.40;99.90;;;;;;4811803;29;20202;-83
2023/08/07 07:49:08;;;;;;;0.20;0.20;;;15.20;99.90;;;;;;4812444;29;20049;-83
2023/08/07 07:51:35;;;;;;;0.17;0.17;;;15.30;99.90;;;;;;4821302;29;20513;-84
2023/08/07 07:54:00;;;;;;;0.20;0.20;;;14.80;99.90;;;;;;4819237;29;20042;-85
2023/08/07 07:56:26;;;;;;;0.20;0.20;;;15.40;99.90;;;;;;4821311;29;20471;-85
2023/08/07 07:58:52;;;;;;;0.20;0.20;;;15.20;99.90;;;;;;4821865;29;20046;-84
2023/08/07 08:01:18;;;;;;;0.20;0.20;;;15.00;99.90;;;;;;4819364;29;20175;-88
2023/08/07 08:03:43;;;;;;;0.20;0.20;;;15.50;99.90;;;;;;4814707;29;20050;-82
2023/08/07 08:06:12;;;;;;;0.20;0.20;;;15.40;99.90;;;;;;4821917;29;20215;-82
2023/08/07 08:08:37;;;;;;;0.20;0.20;;;15.30;99.90;;;;;;4818796;29;20043;-85
2023/08/07 08:11:03;;;;;;;0.20;0.20;;;15.10;99.90;;;;;;4817716;29;20057;-82
2023/08/07 08:13:29;;;;;;;0.15;0.15;;;14.70;99.90;;;;;;4817943;29;20720;-84
2023/08/07 08:15:54;;;;;;;0.20;0.20;;;14.70;99.90;;;;;;4820240;29;20046;-85
2023/08/07 08:18:20;;;;;;;0.20;0.20;;;14.80;99.90;;;;;;4818443;29;20126;-83
2023/08/07 08:20:46;;;;;;;0.20;0.20;;;14.80;99.90;;;;;;4818714;29;20048;-84
2023/08/07 08:23:11;;;;;;;0.17;0.17;;;15.20;99.90;;;;;;4821661;29;20037;-82
2023/08/07 08:25:37;;;;;;;0.20;0.20;;;15.00;99.90;;;;;;4823703;29;20039;-84
2023/08/07 08:28:03;;;;;;;0.10;0.10;;;15.20;99.90;;;;;;4819589;29;20046;-83
2023/08/07 08:30:29;;;;;;;0.20;0.20;;;14.80;99.90;;;;;;4820483;29;20052;-84
2023/08/07 08:32:54;;;;;;;0.20;0.20;;;14.90;99.90;;;;;;4816982;29;20050;-83
2023/08/07 08:35:20;;;;;;;0.20;0.20;;;15.40;99.90;;;;;;4820354;29;20046;-81
2023/08/07 08:37:46;;;;;;;0.20;0.20;;;15.10;99.90;;;;;;4819600;29;20487;-83
2023/08/07 08:40:12;;;;;;;0.20;0.20;;;15.50;99.90;;;;;;4819272;29;20061;-82
2023/08/07 08:42:40;;;;;;;0.13;0.13;;;15.60;99.90;;;;;;4820006;29;20487;-83
2023/08/07 08:45:11;;;;;;;0.20;0.20;;;;;;;;;;4818134;29;20050;-81
2023/08/07 08:47:38;;;;;;;0.10;0.10;;;15.30;99.90;;;;;;4813054;29;20500;-82
2023/08/07 08:50:09;;;;;;;0.20;0.20;;;15.40;99.90;;;;;;4816137;29;20768;-82
2023/08/07 08:52:38;;;;;;;0.15;0.15;;;15.50;99.90;;;;;;4820381;29;20415;-82
2023/08/07 08:55:04;;;;;;;0.10;0.10;;;15.60;99.90;;;;;;4816200;29;20050;-82
2023/08/07 08:57:30;;;;;;;0.10;0.10;;;15.50;99.90;;;;;;4817773;29;20078;-81
2023/08/07 09:00:00;;;;;;;0.20;0.20;;;15.60;99.90;;;;;;4803788;29;20046;-83
2023/08/07 09:02:26;;;;;;;0.20;0.20;;;15.50;99.90;;;;;;4818650;29;20053;-82
2023/08/07 09:04:52;;;;;;;0.10;0.10;;;15.50;99.90;;;;;;4819364;29;20050;-84
2023/08/07 09:07:20;;;;;;;0.20;0.20;;;15.50;99.90;;;;;;4816745;29;20049;-82
2023/08/07 09:09:47;;;;;;;0.20;0.20;;;15.80;99.90;;;;;;4819219;29;20083;-82
2023/08/07 09:12:19;;;;;;;0.10;0.10;;;15.80;99.90;;;;;;4818455;29;20070;-81
2023/08/07 09:14:49;;;;;;;0.20;0.20;;;15.90;99.90;;;;;;4820171;29;20050;-82
2023/08/07 09:17:16;;;;;;;0.10;0.10;;;15.80;99.90;;;;;;4816102;29;20491;-81
2023/08/07 09:19:42;;;;;;;0.20;0.20;;;15.90;99.90;;;;;;4817708;29;20054;-83
2023/08/07 09:22:08;;;;;;;0.20;0.20;;;15.80;99.90;;;;;;4818441;29;20138;-81
2023/08/07 09:24:34;;;;;;;0.20;0.20;;;15.90;99.90;;;;;;4816999;29;20050;-81
2023/08/07 09:27:00;;;;;;;0.10;0.10;;;15.90;99.90;;;;;;4822554;29;20057;-83
2023/08/07 09:29:27;;;;;;;0.20;0.20;;;15.80;99.90;;;;;;4818219;29;20059;-81
2023/08/07 09:31:54;;;;;;;0.20;0.20;;;15.90;99.90;;;;;;4814849;29;20050;-82
2023/08/07 09:34:20;;;;;;;0.20;0.20;;;15.90;99.90;;;;;;4819288;29;20058;-81
2023/08/07 09:36:46;;;;;;;0.20;0.20;;;16.10;99.90;;;;;;4819625;29;20054;-80
2023/08/07 09:39:12;;;;;;;0.15;0.15;;;16.00;99.90;;;;;;4814730;29;20054;-80
2023/08/07 09:41:37;;;;;;;0.13;0.13;;;16.00;99.90;;;;;;4816638;29;20069;-79
2023/08/07 09:44:13;;;;;;;0.10;0.10;;;16.20;99.90;;;;;;4819827;29;20560;-80
2023/08/07 09:46:43;;;;;;;0.20;0.20;;;16.20;99.90;;;;;;4820058;29;20078;-81
2023/08/07 09:49:09;;;;;;;0.20;0.20;;;16.10;99.90;;;;;;4814876;29;20570;-81
2023/08/07 09:51:44;;;;;;;0.15;0.15;;;16.10;99.90;;;;;;4818553;29;20129;-81
2023/08/07 09:54:11;;;;;;;0.30;0.30;;;16.20;99.90;;;;;;4817579;29;20506;-82
2023/08/07 09:56:38;;;;;;;0.17;0.17;;;16.30;99.90;;;;;;4817833;29;20131;-81
2023/08/07 09:59:04;;;;;;;0.20;0.20;;;16.40;99.90;;;;;;4819830;29;20138;-82
2023/08/07 10:01:29;;;;;;;0.20;0.20;;;16.40;99.90;;;;;;4821838;29;20058;-82
2023/08/07 10:03:56;;;;;;;0.10;0.10;;;16.40;99.90;;;;;;4821075;29;20123;-81
2023/08/07 10:06:22;;;;;;;0.20;0.20;;;16.40;99.90;;;;;;4825191;29;20042;-83
2023/08/07 10:08:48;;;;;;;0.10;0.10;;;16.40;99.90;;;;;;4820649;29;20061;-81
2023/08/07 10:11:15;;;;;;;0.20;0.20;;;16.40;99.90;;;;;;4819263;29;20046;-81
2023/08/07 10:13:41;;;;;;;0.10;0.10;;;16.30;99.90;;;;;;4805961;29;20054;-81
2023/08/07 10:16:07;;;;;;;0.20;0.20;;;16.30;99.90;;;;;;4813538;29;20403;-80
2023/08/07 10:18:34;;;;;;;0.13;0.13;;;16.40;99.90;;;;;;4821223;29;20066;-81
2023/08/07 10:21:02;;;;;;;0.20;0.20;;;16.40;99.90;;;;;;4816862;29;20054;-82
2023/08/07 10:23:28;;;;;;;0.20;0.20;;;16.50;99.90;;;;;;4821623;29;20053;-81
2023/08/07 10:25:55;;;;;;;0.20;0.20;;;16.50;99.90;;;;;;4819728;29;20047;-81
2023/08/07 10:28:24;;;;;;;0.10;0.10;;;16.70;99.90;;;;;;4817863;29;20558;-81
2023/08/07 10:30:51;;;;;;;0.20;0.20;;;16.70;99.90;;;;;;4821106;29;20503;-80
2023/08/07 10:33:20;;;;;;;0.20;0.20;;;16.90;99.90;;;;;;4820965;29;20457;-80
2023/08/07 10:35:48;;;;;;;0.10;0.10;;;16.90;99.90;;;;;;4817508;29;20086;-81
2023/08/07 10:38:14;;;;;;;0.20;0.20;;;16.90;99.90;;;;;;4821838;29;20482;-81
2023/08/07 10:41:05;;;;;;;0.20;0.20;;;16.90;99.90;;;;;;4820918;29;20107;-81
2023/08/07 10:43:31;;;;;;;;;;;16.90;99.90;;;;;;4820883;29;20385;-81
2023/08/07 10:46:05;;;;;;;0.20;0.20;;;16.90;99.90;;;;;;4821044;29;19932;-81
2023/08/07 10:48:38;;;;;;;0.15;0.15;;;16.90;99.90;;;;;;4819766;29;20054;-81
2023/08/07 10:51:04;;;;;;;0.20;0.20;;;16.90;99.90;;;;;;4814126;29;20048;-81
2023/08/07 10:53:31;;;;;;;0.10;0.10;;;16.80;99.90;;;;;;4820853;29;20425;-78
2023/08/07 10:55:58;;;;;;;0.20;0.20;;;16.90;99.90;;;;;;4819744;29;20050;-80
2023/08/07 10:58:31;;;;;;;0.20;0.20;;;17.00;99.90;;;;;;4820436;29;20087;-81
2023/08/07 11:01:20;;;;;;;0.20;0.20;;;16.90;99.90;;;;;;4821358;29;20035;-80
2023/08/07 11:03:57;;;;;;;0.20;0.20;;;17.00;99.90;;;;;;4818805;29;20050;-80
2023/08/07 11:06:30;;;;;;;0.20;0.20;;;17.00;99.90;;;;;;4820682;29;20133;-80
2023/08/07 11:08:57;;;;;;;0.10;0.10;;;17.10;99.90;;;;;;4822135;29;20047;-80
2023/08/07 11:11:22;;;;;;;0.17;0.17;;;17.10;99.90;;;;;;4813897;29;20395;-80
2023/08/07 11:13:48;;;;;;;0.10;0.10;;;17.20;99.90;;;;;;4821332;29;20050;-81
2023/08/07 11:16:14;;;;;;;0.20;0.20;;;17.20;99.90;;;;;;4813747;29;20038;-93
2023/08/07 11:18:42;;;;;;;0.20;0.20;;;17.20;99.90;;;;;;4815836;29;20106;-82
2023/08/07 11:21:10;;;;;;;0.20;0.20;;;17.20;99.90;;;;;;4818822;29;20103;-81
2023/08/07 11:23:36;;;;;;;0.13;0.13;;;17.10;99.90;;;;;;4821039;29;20149;-81
2023/08/07 11:26:05;;;;;;;0.20;0.20;;;17.00;99.90;;;;;;4818987;29;20474;-81
2023/08/07 11:28:30;;;;;;;0.10;0.10;;;16.90;99.90;;;;;;4821034;29;20057;-82
2023/08/07 11:30:57;;;;;;;0.20;0.20;;;16.90;99.90;;;;;;4821380;29;20042;-81
2023/08/07 11:33:27;;;;;;;0.10;0.10;;;16.80;99.90;;;;;;4814783;29;20129;-81
2023/08/07 11:35:53;;;;;;;0.20;0.20;;;16.70;99.90;;;;;;4820294;29;20043;-80
2023/08/07 11:38:37;;;;;;;0.20;0.20;;;16.70;99.90;;;;;;4820298;29;20133;-82
2023/08/07 11:41:05;;;;;;;0.10;0.10;;;16.70;99.90;;;;;;4819588;29;20053;-82
2023/08/07 11:43:33;;;;;;;0.10;0.10;;;16.70;99.90;;;;;;4818226;29;20046;-81
2023/08/07 11:46:01;;;;;;;0.10;0.10;;;16.70;99.90;;;;;;4816274;29;20512;-81
2023/08/07 11:48:28;;;;;;;0.20;0.20;;;16.70;99.90;;;;;;4817930;29;20050;-80
2023/08/07 11:50:55;;;;;;;0.20;0.20;;;16.80;99.90;;;;;;4813900;29;20069;-81
2023/08/07 11:53:22;;;;;;;0.20;0.20;;;16.80;99.90;;;;;;4820923;29;20061;-81
2023/08/07 11:55:56;;;;;;;0.20;0.20;;;16.80;99.90;;;;;;4820486;29;20057;-80
2023/08/07 11:58:23;;;;;;;0.20;0.20;;;16.90;99.90;;;;;;4816567;29;20572;-81
2023/08/07 12:00:49;;;;;;;0.20;0.20;;;16.90;99.90;;;;;;4819490;29;20133;-82
2023/08/07 12:03:25;;;;;;;0.20;0.20;;;17.00;99.90;;;;;;4820607;29;20478;-82
2023/08/07 12:05:51;;;;;;;0.20;0.20;;;17.00;99.90;;;;;;4819086;29;20403;-82
2023/08/07 12:08:17;;;;;;;0.20;0.20;;;17.10;99.90;;;;;;4819737;29;20046;-81
2023/08/07 12:10:42;;;;;;;0.10;0.10;;;17.10;99.90;;;;;;4820626;29;20054;-82
2023/08/07 12:13:08;;;;;;;0.20;0.20;;;17.10;99.90;;;;;;4821598;29;20049;-82
2023/08/07 12:15:34;;;;;;;0.20;0.20;;;17.00;99.90;;;;;;4819867;29;20162;-82
2023/08/07 12:18:03;;;;;;;0.20;0.20;;;17.00;99.90;;;;;;4816178;29;20143;-81
2023/08/07 12:20:28;;;;;;;1.00;0.40;;;17.00;99.90;;;;;;4815226;29;20046;-80
2023/08/07 12:22:54;;;;;;;0.20;0.20;;;17.00;99.90;;;;;;4817485;29;20498;-80
2023/08/07 12:25:20;;;;;;;0.15;0.15;;;17.00;99.90;;;;;;4815025;29;20057;-81
2023/08/07 12:27:47;;;;;;;0.20;0.20;;;17.00;99.90;;;;;;4813028;29;20053;-81
2023/08/07 12:30:14;;;;;;;0.20;0.20;;;17.00;99.90;;;;;;4820677;29;20117;-80
2023/08/07 12:32:40;;;;;;;0.20;0.20;;;17.10;99.90;;;;;;4819733;29;20058;-80
2023/08/07 12:35:08;;;;;;;0.20;0.20;;;17.10;99.90;;;;;;4823740;29;20050;-80
2023/08/07 12:37:34;;;;;;;0.20;0.20;;;17.30;99.90;;;;;;4819928;29;20503;-80
2023/08/07 12:40:00;;;;;;;0.10;0.10;;;17.40;99.90;;;;;;4809657;29;20080;-80
2023/08/07 12:42:25;;;;;;;0.20;0.20;;;17.40;99.90;;;;;;4810013;29;20069;-80
2023/08/07 12:44:51;;;;;;;0.20;0.20;;;17.60;99.90;;;;;;4808243;29;20046;-79